sensor_id;sensor_type;location;lat;lon;timestamp;P1;durP1;ratioP1;P2;durP2;ratioP2
26946;SDS011;14501;52.282;10.560;2023-04-24T00:02:13;2.60;;;1.17;;
26946;SDS011;14501;52.282;10.560;2023-04-24T00:04:39;1.45;;;1.10;;
26946;SDS011;14501;52.282;10.560;2023-04-24T00:07:06;1.25;;;1.15;;
26946;SDS011;14501;52.282;10.560;2023-04-24T00:09:33;1.30;;;1.20;;
26946;SDS011;14501;52.282;10.560;2023-04-24T00:11:58;1.48;;;1.38;;
26946;SDS011;14501;52.282;10.560;2023-04-24T00:14:24;3.45;;;1.30;;
26946;SDS011;14501;52.282;10.560;2023-04-24T00:16:50;1.73;;;1.00;;
26946;SDS011;14501;52.282;10.560;2023-04-24T00:19:16;2.65;;;1.27;;
26946;SDS011;14501;52.282;10.560;2023-04-24T00:21:42;2.17;;;1.00;;
26946;SDS011;14501;52.282;10.560;2023-04-24T00:24:07;1.30;;;1.15;;
26946;SDS011;14501;52.282;10.560;2023-04-24T00:26:36;1.20;;;0.90;;
26946;SDS011;14501;52.282;10.560;2023-04-24T00:29:01;1.95;;;1.25;;
26946;SDS011;14501;52.282;10.560;2023-04-24T00:31:27;1.52;;;1.27;;
26946;SDS011;14501;52.282;10.560;2023-04-24T00:33:54;3.28;;;1.45;;
26946;SDS011;14501;52.282;10.560;2023-04-24T00:36:19;0.90;;;0.90;;
26946;SDS011;14501;52.282;10.560;2023-04-24T00:38:45;1.48;;;1.38;;
26946;SDS011;14501;52.282;10.560;2023-04-24T00:41:11;1.42;;;1.33;;
26946;SDS011;14501;52.282;10.560;2023-04-24T00:43:37;1.08;;;1.00;;
26946;SDS011;14501;52.282;10.560;2023-04-24T00:46:02;3.65;;;1.42;;
26946;SDS011;14501;52.282;10.560;2023-04-24T00:48:28;4.97;;;1.17;;
26946;SDS011;14501;52.282;10.560;2023-04-24T00:50:55;1.52;;;1.10;;
26946;SDS011;14501;52.282;10.560;2023-04-24T00:53:22;1.40;;;1.30;;
26946;SDS011;14501;52.282;10.560;2023-04-24T00:55:47;1.63;;;1.13;;
26946;SDS011;14501;52.282;10.560;2023-04-24T00:58:13;1.13;;;1.05;;
26946;SDS011;14501;52.282;10.560;2023-04-24T01:00:39;1.20;;;1.10;;
26946;SDS011;14501;52.282;10.560;2023-04-24T01:03:05;2.15;;;0.80;;
26946;SDS011;14501;52.282;10.560;2023-04-24T01:05:32;4.28;;;1.10;;
26946;SDS011;14501;52.282;10.560;2023-04-24T01:07:58;1.75;;;1.00;;
26946;SDS011;14501;52.282;10.560;2023-04-24T01:10:24;2.40;;;1.10;;
26946;SDS011;14501;52.282;10.560;2023-04-24T01:12:52;1.20;;;0.90;;
26946;SDS011;14501;52.282;10.560;2023-04-24T01:15:18;1.80;;;0.65;;
26946;SDS011;14501;52.282;10.560;2023-04-24T01:17:44;0.85;;;0.70;;
26946;SDS011;14501;52.282;10.560;2023-04-24T01:20:10;2.33;;;1.00;;
26946;SDS011;14501;52.282;10.560;2023-04-24T01:22:35;0.80;;;0.80;;
26946;SDS011;14501;52.282;10.560;2023-04-24T01:25:01;1.33;;;1.20;;
26946;SDS011;14501;52.282;10.560;2023-04-24T01:27:28;2.85;;;1.35;;
26946;SDS011;14501;52.282;10.560;2023-04-24T01:29:54;1.50;;;1.17;;
26946;SDS011;14501;52.282;10.560;2023-04-24T01:32:20;2.20;;;1.17;;
26946;SDS011;14501;52.282;10.560;2023-04-24T01:34:46;1.70;;;1.20;;
26946;SDS011;14501;52.282;10.560;2023-04-24T01:37:12;1.05;;;0.90;;
26946;SDS011;14501;52.282;10.560;2023-04-24T01:39:37;1.90;;;1.27;;
26946;SDS011;14501;52.282;10.560;2023-04-24T01:42:04;1.17;;;0.93;;
26946;SDS011;14501;52.282;10.560;2023-04-24T01:44:30;1.48;;;1.02;;
26946;SDS011;14501;52.282;10.560;2023-04-24T01:46:56;1.80;;;0.93;;
26946;SDS011;14501;52.282;10.560;2023-04-24T01:49:21;1.10;;;1.00;;
26946;SDS011;14501;52.282;10.560;2023-04-24T01:51:47;1.50;;;0.98;;
26946;SDS011;14501;52.282;10.560;2023-04-24T01:54:13;1.20;;;0.85;;
26946;SDS011;14501;52.282;10.560;2023-04-24T01:56:40;1.27;;;1.08;;
26946;SDS011;14501;52.282;10.560;2023-04-24T01:59:07;1.73;;;1.00;;
26946;SDS011;14501;52.282;10.560;2023-04-24T02:01:36;0.95;;;0.95;;
26946;SDS011;14501;52.282;10.560;2023-04-24T02:04:02;8.88;;;1.17;;
26946;SDS011;14501;52.282;10.560;2023-04-24T02:06:28;4.07;;;1.05;;
26946;SDS011;14501;52.282;10.560;2023-04-24T02:08:56;1.75;;;1.00;;
26946;SDS011;14501;52.282;10.560;2023-04-24T02:11:22;0.90;;;0.90;;
26946;SDS011;14501;52.282;10.560;2023-04-24T02:13:48;0.95;;;0.90;;
26946;SDS011;14501;52.282;10.560;2023-04-24T02:16:13;1.60;;;0.90;;
26946;SDS011;14501;52.282;10.560;2023-04-24T02:18:39;1.73;;;1.00;;
26946;SDS011;14501;52.282;10.560;2023-04-24T02:21:04;1.20;;;1.10;;
26946;SDS011;14501;52.282;10.560;2023-04-24T02:23:30;1.80;;;0.95;;
26946;SDS011;14501;52.282;10.560;2023-04-24T02:25:56;2.38;;;1.10;;
26946;SDS011;14501;52.282;10.560;2023-04-24T02:28:21;1.88;;;1.00;;
26946;SDS011;14501;52.282;10.560;2023-04-24T02:30:47;1.30;;;1.10;;
26946;SDS011;14501;52.282;10.560;2023-04-24T02:33:12;1.58;;;1.17;;
26946;SDS011;14501;52.282;10.560;2023-04-24T02:35:38;4.68;;;1.10;;
26946;SDS011;14501;52.282;10.560;2023-04-24T02:38:03;2.47;;;1.42;;
26946;SDS011;14501;52.282;10.560;2023-04-24T02:40:29;1.80;;;1.27;;
26946;SDS011;14501;52.282;10.560;2023-04-24T02:42:55;3.53;;;1.40;;
26946;SDS011;14501;52.282;10.560;2023-04-24T02:45:20;4.97;;;1.48;;
26946;SDS011;14501;52.282;10.560;2023-04-24T02:47:46;2.78;;;1.33;;
26946;SDS011;14501;52.282;10.560;2023-04-24T02:50:12;3.42;;;1.63;;
26946;SDS011;14501;52.282;10.560;2023-04-24T02:52:37;3.58;;;1.50;;
26946;SDS011;14501;52.282;10.560;2023-04-24T02:55:03;4.95;;;1.67;;
26946;SDS011;14501;52.282;10.560;2023-04-24T02:57:29;2.25;;;1.55;;
26946;SDS011;14501;52.282;10.560;2023-04-24T02:59:54;2.10;;;1.50;;
26946;SDS011;14501;52.282;10.560;2023-04-24T03:02:20;2.58;;;1.75;;
26946;SDS011;14501;52.282;10.560;2023-04-24T03:04:46;3.38;;;1.85;;
26946;SDS011;14501;52.282;10.560;2023-04-24T03:07:12;4.85;;;2.05;;
26946;SDS011;14501;52.282;10.560;2023-04-24T03:09:39;4.65;;;1.90;;
26946;SDS011;14501;52.282;10.560;2023-04-24T03:12:05;3.10;;;1.90;;
26946;SDS011;14501;52.282;10.560;2023-04-24T03:14:31;6.53;;;2.08;;
26946;SDS011;14501;52.282;10.560;2023-04-24T03:16:56;3.90;;;1.65;;
26946;SDS011;14501;52.282;10.560;2023-04-24T03:19:22;2.67;;;1.60;;
26946;SDS011;14501;52.282;10.560;2023-04-24T03:21:48;1.13;;;0.98;;
26946;SDS011;14501;52.282;10.560;2023-04-24T03:24:13;0.90;;;0.90;;
26946;SDS011;14501;52.282;10.560;2023-04-24T03:26:39;1.38;;;0.90;;
26946;SDS011;14501;52.282;10.560;2023-04-24T03:29:04;0.85;;;0.82;;
26946;SDS011;14501;52.282;10.560;2023-04-24T03:31:30;0.98;;;0.88;;
26946;SDS011;14501;52.282;10.560;2023-04-24T03:33:56;1.00;;;0.90;;
26946;SDS011;14501;52.282;10.560;2023-04-24T03:36:21;0.90;;;0.80;;
26946;SDS011;14501;52.282;10.560;2023-04-24T03:38:47;1.42;;;0.93;;
26946;SDS011;14501;52.282;10.560;2023-04-24T03:41:12;2.00;;;1.15;;
26946;SDS011;14501;52.282;10.560;2023-04-24T03:43:38;2.92;;;1.20;;
26946;SDS011;14501;52.282;10.560;2023-04-24T03:46:04;2.58;;;1.63;;
26946;SDS011;14501;52.282;10.560;2023-04-24T03:48:30;1.08;;;0.98;;
26946;SDS011;14501;52.282;10.560;2023-04-24T03:50:55;3.17;;;1.60;;
26946;SDS011;14501;52.282;10.560;2023-04-24T03:53:21;1.33;;;1.08;;
26946;SDS011;14501;52.282;10.560;2023-04-24T03:55:47;1.63;;;1.00;;
26946;SDS011;14501;52.282;10.560;2023-04-24T03:58:12;1.40;;;1.30;;
26946;SDS011;14501;52.282;10.560;2023-04-24T04:00:41;2.35;;;0.98;;
26946;SDS011;14501;52.282;10.560;2023-04-24T04:03:06;0.90;;;0.90;;
26946;SDS011;14501;52.282;10.560;2023-04-24T04:05:32;2.78;;;1.15;;
26946;SDS011;14501;52.282;10.560;2023-04-24T04:07:57;1.88;;;0.90;;
26946;SDS011;14501;52.282;10.560;2023-04-24T04:10:23;1.10;;;1.00;;
26946;SDS011;14501;52.282;10.560;2023-04-24T04:12:49;2.10;;;1.30;;
26946;SDS011;14501;52.282;10.560;2023-04-24T04:15:14;2.22;;;0.90;;
26946;SDS011;14501;52.282;10.560;2023-04-24T04:17:40;1.50;;;1.30;;
26946;SDS011;14501;52.282;10.560;2023-04-24T04:20:06;2.30;;;1.08;;
26946;SDS011;14501;52.282;10.560;2023-04-24T04:22:34;2.22;;;1.42;;
26946;SDS011;14501;52.282;10.560;2023-04-24T04:25:00;2.03;;;1.35;;
26946;SDS011;14501;52.282;10.560;2023-04-24T04:27:26;4.07;;;1.50;;
26946;SDS011;14501;52.282;10.560;2023-04-24T04:29:53;5.38;;;1.55;;
26946;SDS011;14501;52.282;10.560;2023-04-24T04:32:21;3.92;;;1.60;;
26946;SDS011;14501;52.282;10.560;2023-04-24T04:34:47;1.85;;;1.13;;
26946;SDS011;14501;52.282;10.560;2023-04-24T04:37:14;2.47;;;1.40;;
26946;SDS011;14501;52.282;10.560;2023-04-24T04:39:40;2.30;;;1.13;;
26946;SDS011;14501;52.282;10.560;2023-04-24T04:42:05;2.97;;;1.15;;
26946;SDS011;14501;52.282;10.560;2023-04-24T04:44:31;2.13;;;1.10;;
26946;SDS011;14501;52.282;10.560;2023-04-24T04:46:57;2.10;;;1.50;;
26946;SDS011;14501;52.282;10.560;2023-04-24T04:49:24;2.25;;;1.70;;
26946;SDS011;14501;52.282;10.560;2023-04-24T04:51:49;3.40;;;1.40;;
26946;SDS011;14501;52.282;10.560;2023-04-24T04:54:16;2.33;;;1.10;;
26946;SDS011;14501;52.282;10.560;2023-04-24T04:56:41;3.58;;;1.50;;
26946;SDS011;14501;52.282;10.560;2023-04-24T04:59:07;2.17;;;1.70;;
26946;SDS011;14501;52.282;10.560;2023-04-24T05:01:32;2.67;;;1.60;;
26946;SDS011;14501;52.282;10.560;2023-04-24T05:03:58;6.43;;;2.08;;
26946;SDS011;14501;52.282;10.560;2023-04-24T05:06:23;6.28;;;2.13;;
26946;SDS011;14501;52.282;10.560;2023-04-24T05:08:50;6.50;;;2.10;;
26946;SDS011;14501;52.282;10.560;2023-04-24T05:11:16;3.60;;;1.52;;
26946;SDS011;14501;52.282;10.560;2023-04-24T05:13:43;3.60;;;2.00;;
26946;SDS011;14501;52.282;10.560;2023-04-24T05:16:09;3.22;;;1.73;;
26946;SDS011;14501;52.282;10.560;2023-04-24T05:18:34;3.95;;;1.50;;
26946;SDS011;14501;52.282;10.560;2023-04-24T05:21:00;2.35;;;1.08;;
26946;SDS011;14501;52.282;10.560;2023-04-24T05:23:26;4.53;;;1.33;;
26946;SDS011;14501;52.282;10.560;2023-04-24T05:25:51;1.33;;;0.75;;
26946;SDS011;14501;52.282;10.560;2023-04-24T05:28:17;2.33;;;0.82;;
26946;SDS011;14501;52.282;10.560;2023-04-24T05:30:42;1.80;;;0.90;;
26946;SDS011;14501;52.282;10.560;2023-04-24T05:33:08;1.40;;;0.60;;
26946;SDS011;14501;52.282;10.560;2023-04-24T05:35:34;0.85;;;0.85;;
26946;SDS011;14501;52.282;10.560;2023-04-24T05:38:00;1.05;;;0.70;;
26946;SDS011;14501;52.282;10.560;2023-04-24T05:40:26;0.73;;;0.70;;
26946;SDS011;14501;52.282;10.560;2023-04-24T05:42:51;0.60;;;0.60;;
26946;SDS011;14501;52.282;10.560;2023-04-24T05:45:17;1.00;;;0.90;;
26946;SDS011;14501;52.282;10.560;2023-04-24T05:47:43;1.52;;;0.70;;
26946;SDS011;14501;52.282;10.560;2023-04-24T05:50:09;1.38;;;0.70;;
26946;SDS011;14501;52.282;10.560;2023-04-24T05:52:35;1.67;;;0.93;;
26946;SDS011;14501;52.282;10.560;2023-04-24T05:55:01;3.85;;;1.13;;
26946;SDS011;14501;52.282;10.560;2023-04-24T05:57:27;2.13;;;1.10;;
26946;SDS011;14501;52.282;10.560;2023-04-24T05:59:53;4.45;;;0.90;;
26946;SDS011;14501;52.282;10.560;2023-04-24T06:02:18;1.17;;;0.60;;
26946;SDS011;14501;52.282;10.560;2023-04-24T06:04:44;2.13;;;0.80;;
26946;SDS011;14501;52.282;10.560;2023-04-24T06:07:13;1.35;;;0.73;;
26946;SDS011;14501;52.282;10.560;2023-04-24T06:09:38;5.70;;;1.00;;
26946;SDS011;14501;52.282;10.560;2023-04-24T06:12:04;2.95;;;0.93;;
26946;SDS011;14501;52.282;10.560;2023-04-24T06:14:32;0.82;;;0.75;;
26946;SDS011;14501;52.282;10.560;2023-04-24T06:16:58;4.43;;;1.20;;
26946;SDS011;14501;52.282;10.560;2023-04-24T06:19:23;2.80;;;1.05;;
26946;SDS011;14501;52.282;10.560;2023-04-24T06:21:49;2.08;;;0.98;;
26946;SDS011;14501;52.282;10.560;2023-04-24T06:24:15;1.75;;;1.10;;
26946;SDS011;14501;52.282;10.560;2023-04-24T06:26:41;1.48;;;0.88;;
26946;SDS011;14501;52.282;10.560;2023-04-24T06:29:07;1.60;;;1.05;;
26946;SDS011;14501;52.282;10.560;2023-04-24T06:31:33;1.52;;;0.98;;
26946;SDS011;14501;52.282;10.560;2023-04-24T06:34:02;2.55;;;1.17;;
26946;SDS011;14501;52.282;10.560;2023-04-24T06:36:28;4.97;;;1.25;;
26946;SDS011;14501;52.282;10.560;2023-04-24T06:38:53;2.17;;;1.08;;
26946;SDS011;14501;52.282;10.560;2023-04-24T06:41:19;0.70;;;0.70;;
26946;SDS011;14501;52.282;10.560;2023-04-24T06:43:45;1.10;;;0.82;;
26946;SDS011;14501;52.282;10.560;2023-04-24T06:46:10;0.93;;;0.88;;
26946;SDS011;14501;52.282;10.560;2023-04-24T06:48:37;1.52;;;0.98;;
26946;SDS011;14501;52.282;10.560;2023-04-24T06:51:03;0.98;;;0.80;;
26946;SDS011;14501;52.282;10.560;2023-04-24T06:53:28;1.05;;;0.95;;
26946;SDS011;14501;52.282;10.560;2023-04-24T06:55:54;2.05;;;1.20;;
26946;SDS011;14501;52.282;10.560;2023-04-24T06:58:20;2.47;;;1.40;;
26946;SDS011;14501;52.282;10.560;2023-04-24T07:00:46;1.10;;;0.90;;
26946;SDS011;14501;52.282;10.560;2023-04-24T07:03:11;2.05;;;1.20;;
26946;SDS011;14501;52.282;10.560;2023-04-24T07:05:37;2.17;;;1.23;;
26946;SDS011;14501;52.282;10.560;2023-04-24T07:08:03;3.22;;;1.23;;
26946;SDS011;14501;52.282;10.560;2023-04-24T07:10:29;2.42;;;1.10;;
26946;SDS011;14501;52.282;10.560;2023-04-24T07:12:55;1.67;;;1.10;;
26946;SDS011;14501;52.282;10.560;2023-04-24T07:15:21;3.30;;;1.60;;
26946;SDS011;14501;52.282;10.560;2023-04-24T07:17:48;4.38;;;1.50;;
26946;SDS011;14501;52.282;10.560;2023-04-24T07:20:14;3.97;;;1.50;;
26946;SDS011;14501;52.282;10.560;2023-04-24T07:22:40;2.58;;;1.23;;
26946;SDS011;14501;52.282;10.560;2023-04-24T07:25:06;1.20;;;1.10;;
26946;SDS011;14501;52.282;10.560;2023-04-24T07:27:33;1.73;;;1.10;;
26946;SDS011;14501;52.282;10.560;2023-04-24T07:29:59;1.48;;;0.77;;
26946;SDS011;14501;52.282;10.560;2023-04-24T07:32:25;0.98;;;0.60;;
26946;SDS011;14501;52.282;10.560;2023-04-24T07:34:51;1.05;;;0.63;;
26946;SDS011;14501;52.282;10.560;2023-04-24T07:37:16;0.80;;;0.52;;
26946;SDS011;14501;52.282;10.560;2023-04-24T07:39:42;2.75;;;0.60;;
26946;SDS011;14501;52.282;10.560;2023-04-24T07:42:08;2.00;;;0.77;;
26946;SDS011;14501;52.282;10.560;2023-04-24T07:44:34;0.82;;;0.70;;
26946;SDS011;14501;52.282;10.560;2023-04-24T07:47:00;1.08;;;0.80;;
26946;SDS011;14501;52.282;10.560;2023-04-24T07:49:26;1.05;;;0.95;;
26946;SDS011;14501;52.282;10.560;2023-04-24T07:51:53;0.73;;;0.73;;
26946;SDS011;14501;52.282;10.560;2023-04-24T07:54:19;0.82;;;0.82;;
26946;SDS011;14501;52.282;10.560;2023-04-24T07:56:45;1.73;;;1.30;;
26946;SDS011;14501;52.282;10.560;2023-04-24T07:59:10;2.95;;;1.30;;
26946;SDS011;14501;52.282;10.560;2023-04-24T08:01:36;3.90;;;1.67;;
26946;SDS011;14501;52.282;10.560;2023-04-24T08:04:03;2.95;;;1.15;;
26946;SDS011;14501;52.282;10.560;2023-04-24T08:06:28;1.33;;;1.23;;
26946;SDS011;14501;52.282;10.560;2023-04-24T08:09:00;1.40;;;1.30;;
26946;SDS011;14501;52.282;10.560;2023-04-24T08:11:26;2.50;;;1.70;;
26946;SDS011;14501;52.282;10.560;2023-04-24T08:13:52;2.38;;;1.35;;
26946;SDS011;14501;52.282;10.560;2023-04-24T08:16:19;2.22;;;1.70;;
26946;SDS011;14501;52.282;10.560;2023-04-24T08:18:45;1.98;;;1.83;;
26946;SDS011;14501;52.282;10.560;2023-04-24T08:21:10;2.03;;;1.80;;
26946;SDS011;14501;52.282;10.560;2023-04-24T08:23:37;1.83;;;1.67;;
26946;SDS011;14501;52.282;10.560;2023-04-24T08:26:03;3.80;;;1.27;;
26946;SDS011;14501;52.282;10.560;2023-04-24T08:28:29;2.35;;;1.52;;
26946;SDS011;14501;52.282;10.560;2023-04-24T08:30:55;2.83;;;1.35;;
26946;SDS011;14501;52.282;10.560;2023-04-24T08:33:24;2.30;;;1.30;;
26946;SDS011;14501;52.282;10.560;2023-04-24T08:35:49;1.67;;;0.98;;
26946;SDS011;14501;52.282;10.560;2023-04-24T08:38:15;1.73;;;1.63;;
26946;SDS011;14501;52.282;10.560;2023-04-24T08:40:42;1.38;;;1.20;;
26946;SDS011;14501;52.282;10.560;2023-04-24T08:43:08;1.75;;;1.08;;
26946;SDS011;14501;52.282;10.560;2023-04-24T08:45:34;1.45;;;1.20;;
26946;SDS011;14501;52.282;10.560;2023-04-24T08:48:00;1.23;;;1.13;;
26946;SDS011;14501;52.282;10.560;2023-04-24T08:50:27;2.28;;;1.10;;
26946;SDS011;14501;52.282;10.560;2023-04-24T08:52:54;0.85;;;0.85;;
26946;SDS011;14501;52.282;10.560;2023-04-24T08:55:20;2.10;;;0.82;;
26946;SDS011;14501;52.282;10.560;2023-04-24T08:57:50;1.80;;;1.25;;
26946;SDS011;14501;52.282;10.560;2023-04-24T09:00:18;1.30;;;1.15;;
26946;SDS011;14501;52.282;10.560;2023-04-24T09:02:48;2.75;;;1.20;;
26946;SDS011;14501;52.282;10.560;2023-04-24T09:05:16;1.30;;;1.10;;
26946;SDS011;14501;52.282;10.560;2023-04-24T09:07:44;1.90;;;1.40;;
26946;SDS011;14501;52.282;10.560;2023-04-24T09:10:11;3.53;;;1.40;;
26946;SDS011;14501;52.282;10.560;2023-04-24T09:12:37;2.38;;;1.60;;
26946;SDS011;14501;52.282;10.560;2023-04-24T09:15:03;3.15;;;1.80;;
26946;SDS011;14501;52.282;10.560;2023-04-24T09:17:30;1.42;;;1.33;;
26946;SDS011;14501;52.282;10.560;2023-04-24T09:19:56;2.63;;;1.30;;
26946;SDS011;14501;52.282;10.560;2023-04-24T09:22:21;2.80;;;1.45;;
26946;SDS011;14501;52.282;10.560;2023-04-24T09:24:47;2.40;;;1.27;;
26946;SDS011;14501;52.282;10.560;2023-04-24T09:27:13;1.60;;;1.50;;
26946;SDS011;14501;52.282;10.560;2023-04-24T09:29:47;2.63;;;1.75;;
26946;SDS011;14501;52.282;10.560;2023-04-24T09:32:20;3.03;;;1.70;;
26946;SDS011;14501;52.282;10.560;2023-04-24T09:34:47;2.20;;;1.90;;
26946;SDS011;14501;52.282;10.560;2023-04-24T09:37:26;2.42;;;1.55;;
26946;SDS011;14501;52.282;10.560;2023-04-24T09:40:16;2.67;;;1.90;;
26946;SDS011;14501;52.282;10.560;2023-04-24T09:42:43;1.90;;;1.67;;
26946;SDS011;14501;52.282;10.560;2023-04-24T09:45:16;2.05;;;1.77;;
26946;SDS011;14501;52.282;10.560;2023-04-24T09:47:42;1.80;;;1.60;;
26946;SDS011;14501;52.282;10.560;2023-04-24T09:50:11;2.05;;;1.70;;
26946;SDS011;14501;52.282;10.560;2023-04-24T09:52:45;2.95;;;2.03;;
26946;SDS011;14501;52.282;10.560;2023-04-24T09:55:13;4.32;;;1.92;;
26946;SDS011;14501;52.282;10.560;2023-04-24T09:57:52;2.50;;;1.92;;
26946;SDS011;14501;52.282;10.560;2023-04-24T10:00:31;3.50;;;1.80;;
26946;SDS011;14501;52.282;10.560;2023-04-24T10:02:58;3.05;;;2.40;;
26946;SDS011;14501;52.282;10.560;2023-04-24T10:08:01;3.00;;;1.90;;
26946;SDS011;14501;52.282;10.560;2023-04-24T10:10:29;2.55;;;1.75;;
26946;SDS011;14501;52.282;10.560;2023-04-24T10:12:56;2.05;;;1.85;;
26946;SDS011;14501;52.282;10.560;2023-04-24T10:15:22;1.90;;;1.70;;
26946;SDS011;14501;52.282;10.560;2023-04-24T10:17:48;2.83;;;1.67;;
26946;SDS011;14501;52.282;10.560;2023-04-24T10:20:18;2.10;;;1.55;;
26946;SDS011;14501;52.282;10.560;2023-04-24T10:22:46;2.88;;;1.52;;
26946;SDS011;14501;52.282;10.560;2023-04-24T10:25:16;1.60;;;1.48;;
26946;SDS011;14501;52.282;10.560;2023-04-24T10:27:46;2.33;;;1.73;;
26946;SDS011;14501;52.282;10.560;2023-04-24T10:30:13;4.05;;;1.92;;
26946;SDS011;14501;52.282;10.560;2023-04-24T10:32:39;2.15;;;1.77;;
26946;SDS011;14501;52.282;10.560;2023-04-24T10:35:09;1.83;;;1.50;;
26946;SDS011;14501;52.282;10.560;2023-04-24T10:37:36;5.47;;;1.92;;
26946;SDS011;14501;52.282;10.560;2023-04-24T10:40:04;3.08;;;1.80;;
26946;SDS011;14501;52.282;10.560;2023-04-24T10:42:30;4.65;;;1.98;;
26946;SDS011;14501;52.282;10.560;2023-04-24T10:44:56;3.67;;;1.90;;
26946;SDS011;14501;52.282;10.560;2023-04-24T10:47:23;3.55;;;2.42;;
26946;SDS011;14501;52.282;10.560;2023-04-24T10:49:50;2.67;;;2.13;;
26946;SDS011;14501;52.282;10.560;2023-04-24T10:52:16;2.05;;;1.85;;
26946;SDS011;14501;52.282;10.560;2023-04-24T10:54:46;3.13;;;2.05;;
26946;SDS011;14501;52.282;10.560;2023-04-24T10:59:45;1.58;;;1.48;;
26946;SDS011;14501;52.282;10.560;2023-04-24T11:02:13;2.35;;;1.83;;
26946;SDS011;14501;52.282;10.560;2023-04-24T11:04:40;1.60;;;1.50;;
26946;SDS011;14501;52.282;10.560;2023-04-24T11:07:07;2.17;;;1.40;;
26946;SDS011;14501;52.282;10.560;2023-04-24T11:09:35;2.30;;;1.77;;
26946;SDS011;14501;52.282;10.560;2023-04-24T11:12:05;1.67;;;1.33;;
26946;SDS011;14501;52.282;10.560;2023-04-24T11:17:31;1.55;;;1.33;;
26946;SDS011;14501;52.282;10.560;2023-04-24T11:20:02;1.25;;;1.15;;
26946;SDS011;14501;52.282;10.560;2023-04-24T11:22:32;2.80;;;0.85;;
26946;SDS011;14501;52.282;10.560;2023-04-24T11:25:00;2.95;;;1.30;;
26946;SDS011;14501;52.282;10.560;2023-04-24T11:27:30;3.35;;;1.48;;
26946;SDS011;14501;52.282;10.560;2023-04-24T11:30:00;2.55;;;1.10;;
26946;SDS011;14501;52.282;10.560;2023-04-24T11:32:30;1.52;;;1.05;;
26946;SDS011;14501;52.282;10.560;2023-04-24T11:34:59;1.17;;;1.08;;
26946;SDS011;14501;52.282;10.560;2023-04-24T11:37:53;1.30;;;1.20;;
26946;SDS011;14501;52.282;10.560;2023-04-24T11:40:20;2.13;;;1.17;;
26946;SDS011;14501;52.282;10.560;2023-04-24T11:42:50;1.83;;;1.15;;
26946;SDS011;14501;52.282;10.560;2023-04-24T11:45:17;1.75;;;1.15;;
26946;SDS011;14501;52.282;10.560;2023-04-24T11:47:44;1.52;;;1.17;;
26946;SDS011;14501;52.282;10.560;2023-04-24T11:50:17;1.45;;;1.05;;
26946;SDS011;14501;52.282;10.560;2023-04-24T11:52:44;1.08;;;0.90;;
26946;SDS011;14501;52.282;10.560;2023-04-24T11:57:44;1.25;;;1.00;;
26946;SDS011;14501;52.282;10.560;2023-04-24T12:00:21;1.48;;;0.98;;
26946;SDS011;14501;52.282;10.560;2023-04-24T12:02:48;0.85;;;0.80;;
26946;SDS011;14501;52.282;10.560;2023-04-24T12:05:21;1.42;;;1.10;;
26946;SDS011;14501;52.282;10.560;2023-04-24T12:07:53;2.30;;;1.15;;
26946;SDS011;14501;52.282;10.560;2023-04-24T12:10:23;2.08;;;1.13;;
26946;SDS011;14501;52.282;10.560;2023-04-24T12:12:50;1.83;;;1.23;;
26946;SDS011;14501;52.282;10.560;2023-04-24T12:15:17;1.15;;;0.80;;
26946;SDS011;14501;52.282;10.560;2023-04-24T12:17:44;1.77;;;1.20;;
26946;SDS011;14501;52.282;10.560;2023-04-24T12:20:10;1.63;;;1.38;;
26946;SDS011;14501;52.282;10.560;2023-04-24T12:25:17;1.75;;;1.15;;
26946;SDS011;14501;52.282;10.560;2023-04-24T12:27:44;4.20;;;1.30;;
26946;SDS011;14501;52.282;10.560;2023-04-24T12:30:14;1.58;;;1.20;;
26946;SDS011;14501;52.282;10.560;2023-04-24T12:32:41;2.17;;;1.40;;
26946;SDS011;14501;52.282;10.560;2023-04-24T12:35:12;1.95;;;1.05;;
26946;SDS011;14501;52.282;10.560;2023-04-24T12:37:38;2.00;;;1.30;;
26946;SDS011;14501;52.282;10.560;2023-04-24T12:40:11;3.60;;;1.40;;
26946;SDS011;14501;52.282;10.560;2023-04-24T12:42:44;1.83;;;1.20;;
26946;SDS011;14501;52.282;10.560;2023-04-24T12:45:11;1.45;;;1.33;;
26946;SDS011;14501;52.282;10.560;2023-04-24T12:47:37;1.25;;;1.05;;
26946;SDS011;14501;52.282;10.560;2023-04-24T12:50:04;1.63;;;1.40;;
26946;SDS011;14501;52.282;10.560;2023-04-24T12:52:31;1.58;;;1.48;;
26946;SDS011;14501;52.282;10.560;2023-04-24T12:54:58;1.50;;;1.40;;
26946;SDS011;14501;52.282;10.560;2023-04-24T12:57:25;1.45;;;1.30;;
26946;SDS011;14501;52.282;10.560;2023-04-24T12:59:54;2.60;;;1.30;;
26946;SDS011;14501;52.282;10.560;2023-04-24T13:02:24;2.90;;;0.90;;
26946;SDS011;14501;52.282;10.560;2023-04-24T13:04:52;1.40;;;1.00;;
26946;SDS011;14501;52.282;10.560;2023-04-24T13:07:18;0.88;;;0.60;;
26946;SDS011;14501;52.282;10.560;2023-04-24T13:09:44;0.40;;;0.40;;
26946;SDS011;14501;52.282;10.560;2023-04-24T13:12:11;0.40;;;0.40;;
26946;SDS011;14501;52.282;10.560;2023-04-24T13:14:37;0.90;;;0.57;;
26946;SDS011;14501;52.282;10.560;2023-04-24T13:17:03;0.30;;;0.30;;
26946;SDS011;14501;52.282;10.560;2023-04-24T13:19:29;0.73;;;0.60;;
26946;SDS011;14501;52.282;10.560;2023-04-24T13:22:01;0.50;;;0.50;;
26946;SDS011;14501;52.282;10.560;2023-04-24T13:24:27;0.75;;;0.57;;
26946;SDS011;14501;52.282;10.560;2023-04-24T13:26:52;2.42;;;0.65;;
26946;SDS011;14501;52.282;10.560;2023-04-24T13:29:18;0.52;;;0.52;;
26946;SDS011;14501;52.282;10.560;2023-04-24T13:31:45;0.60;;;0.60;;
26946;SDS011;14501;52.282;10.560;2023-04-24T13:34:12;0.85;;;0.60;;
26946;SDS011;14501;52.282;10.560;2023-04-24T13:36:38;0.73;;;0.73;;
26946;SDS011;14501;52.282;10.560;2023-04-24T13:39:04;3.05;;;1.13;;
26946;SDS011;14501;52.282;10.560;2023-04-24T13:41:31;0.73;;;0.60;;
26946;SDS011;14501;52.282;10.560;2023-04-24T13:43:57;3.17;;;0.60;;
26946;SDS011;14501;52.282;10.560;2023-04-24T13:46:23;0.77;;;0.77;;
26946;SDS011;14501;52.282;10.560;2023-04-24T13:48:49;0.55;;;0.52;;
26946;SDS011;14501;52.282;10.560;2023-04-24T13:51:15;2.05;;;0.60;;
26946;SDS011;14501;52.282;10.560;2023-04-24T13:53:40;0.55;;;0.52;;
26946;SDS011;14501;52.282;10.560;2023-04-24T13:56:06;2.95;;;0.63;;
26946;SDS011;14501;52.282;10.560;2023-04-24T13:58:33;4.50;;;1.00;;
26946;SDS011;14501;52.282;10.560;2023-04-24T14:00:58;2.38;;;1.60;;
26946;SDS011;14501;52.282;10.560;2023-04-24T14:03:24;1.17;;;1.05;;
26946;SDS011;14501;52.282;10.560;2023-04-24T14:05:50;2.28;;;1.00;;
26946;SDS011;14501;52.282;10.560;2023-04-24T14:08:15;1.17;;;1.05;;
26946;SDS011;14501;52.282;10.560;2023-04-24T14:10:42;3.53;;;0.90;;
26946;SDS011;14501;52.282;10.560;2023-04-24T14:13:07;0.98;;;0.98;;
26946;SDS011;14501;52.282;10.560;2023-04-24T14:15:35;1.00;;;0.90;;
26946;SDS011;14501;52.282;10.560;2023-04-24T14:18:00;1.95;;;1.08;;
26946;SDS011;14501;52.282;10.560;2023-04-24T14:20:26;1.40;;;0.93;;
26946;SDS011;14501;52.282;10.560;2023-04-24T14:22:52;0.70;;;0.70;;
26946;SDS011;14501;52.282;10.560;2023-04-24T14:25:18;0.77;;;0.77;;
26946;SDS011;14501;52.282;10.560;2023-04-24T14:27:43;1.67;;;0.60;;
26946;SDS011;14501;52.282;10.560;2023-04-24T14:30:10;0.70;;;0.70;;
26946;SDS011;14501;52.282;10.560;2023-04-24T14:32:37;1.20;;;0.90;;
26946;SDS011;14501;52.282;10.560;2023-04-24T14:35:04;0.55;;;0.55;;
26946;SDS011;14501;52.282;10.560;2023-04-24T14:37:31;0.63;;;0.63;;
26946;SDS011;14501;52.282;10.560;2023-04-24T14:39:56;0.55;;;0.55;;
26946;SDS011;14501;52.282;10.560;2023-04-24T14:42:22;0.98;;;0.40;;
26946;SDS011;14501;52.282;10.560;2023-04-24T14:44:48;0.40;;;0.40;;